createdAt,value
2022-08-10T00:00:16.777Z,57.9
2022-08-10T00:01:17.342Z,58.0
2022-08-10T00:02:17.376Z,57.9
2022-08-10T00:03:16.866Z,58.0
2022-08-10T00:04:22.025Z,58.1
2022-08-10T00:05:16.785Z,58.0
2022-08-10T00:06:17.208Z,58.1
2022-08-10T00:07:16.672Z,58.1
2022-08-10T00:08:24.330Z,58.1
2022-08-10T00:09:16.776Z,58.1
2022-08-10T00:10:17.207Z,58.2
2022-08-10T00:11:17.025Z,58.4
2022-08-10T00:12:17.253Z,58.4
2022-08-10T00:13:16.668Z,58.2
2022-08-10T00:14:17.111Z,58.2
2022-08-10T00:15:44.439Z,58.3
2022-08-10T00:16:17.043Z,58.4
2022-08-10T00:17:16.520Z,58.5
2022-08-10T00:18:31.387Z,58.4
2022-08-10T00:19:18.452Z,58.5
2022-08-10T00:20:16.542Z,58.4
2022-08-10T00:21:16.980Z,58.4
2022-08-10T00:22:17.322Z,58.5
2022-08-10T00:23:16.778Z,58.6
2022-08-10T00:24:17.228Z,58.4
2022-08-10T00:25:16.688Z,58.5
2022-08-10T00:26:18.518Z,58.4
2022-08-10T00:27:51.817Z,58.4
2022-08-10T00:28:16.419Z,58.5
2022-08-10T00:29:16.901Z,58.4
2022-08-10T00:30:17.405Z,58.4
2022-08-10T00:31:16.878Z,58.4
2022-08-10T00:32:17.003Z,58.4
2022-08-10T00:33:16.447Z,58.2
2022-08-10T00:34:16.907Z,58.4
2022-08-10T00:35:17.367Z,58.5
2022-08-10T00:36:16.784Z,58.4
2022-08-10T00:37:17.215Z,58.5
2022-08-10T00:38:16.640Z,58.5
2022-08-10T00:39:17.713Z,58.5
2022-08-10T00:40:16.862Z,58.5
2022-08-10T00:41:17.294Z,58.5
2022-08-10T00:42:16.998Z,58.5
2022-08-10T00:43:24.117Z,58.7
2022-08-10T00:44:16.669Z,58.7
2022-08-10T00:45:17.135Z,58.7
2022-08-10T00:46:16.579Z,58.8
2022-08-10T00:47:35.709Z,58.9
2022-08-10T00:48:16.539Z,58.8
2022-08-10T00:49:17.015Z,59.0
2022-08-10T00:50:16.466Z,59.2
2022-08-10T00:51:16.895Z,59.2
2022-08-10T00:52:17.388Z,59.0
2022-08-10T00:53:16.851Z,59.2
2022-08-10T00:54:25.210Z,59.2
2022-08-10T00:55:16.714Z,59.3
2022-08-10T00:56:35.400Z,59.3
2022-08-10T00:57:18.834Z,59.3
2022-08-10T00:58:17.301Z,59.4
2022-08-10T00:59:16.823Z,59.5
2022-08-10T01:00:17.319Z,59.5
2022-08-10T01:02:08.182Z,59.6
2022-08-10T01:02:17.356Z,59.5
2022-08-10T01:04:35.709Z,59.5
2022-08-10T01:04:36.026Z,59.4
2022-08-10T01:05:16.836Z,59.5
2022-08-10T01:06:17.276Z,59.5
2022-08-10T01:07:16.738Z,59.5
2022-08-10T01:08:17.159Z,59.7
2022-08-10T01:09:16.580Z,59.8
2022-08-10T01:10:17.021Z,59.9
2022-08-10T01:12:27.699Z,59.8
2022-08-10T01:12:40.189Z,59.9
2022-08-10T01:13:17.438Z,60.0
2022-08-10T01:14:16.903Z,59.9
2022-08-10T01:15:17.402Z,59.8
2022-08-10T01:16:16.883Z,60.0
2022-08-10T01:17:17.335Z,59.8
2022-08-10T01:18:16.785Z,59.7
2022-08-10T01:19:17.272Z,59.8
2022-08-10T01:20:30.227Z,59.8
2022-08-10T01:21:17.285Z,59.8
2022-08-10T01:22:17.065Z,59.9
2022-08-10T01:23:16.478Z,60.0
2022-08-10T01:24:20.108Z,60.1
2022-08-10T01:25:16.619Z,60.0
2022-08-10T01:26:30.900Z,60.1
2022-08-10T01:27:17.193Z,60.1
2022-08-10T01:28:16.642Z,60.2
2022-08-10T01:29:17.095Z,60.2
2022-08-10T01:30:16.581Z,60.2
2022-08-10T01:31:17.030Z,60.2
2022-08-10T01:32:16.876Z,60.2
2022-08-10T01:33:17.327Z,60.3
2022-08-10T01:34:18.349Z,60.4
2022-08-10T01:35:16.779Z,60.4
2022-08-10T01:36:17.204Z,60.1
2022-08-10T01:37:16.616Z,60.1
2022-08-10T01:38:17.054Z,60.1
2022-08-10T01:39:16.648Z,60.2
2022-08-10T01:40:17.133Z,60.3
2022-08-10T01:41:17.049Z,60.3
2022-08-10T01:42:16.529Z,60.3
2022-08-10T01:43:16.999Z,60.3
2022-08-10T01:44:20.333Z,60.2
2022-08-10T01:45:16.922Z,60.4
2022-08-10T01:46:17.389Z,60.4
2022-08-10T01:47:22.747Z,60.3
2022-08-10T01:48:17.116Z,60.2
2022-08-10T01:49:16.558Z,60.2
2022-08-10T01:50:17.009Z,60.3
2022-08-10T01:51:16.443Z,60.2
2022-08-10T01:52:18.459Z,60.5
2022-08-10T01:53:16.869Z,60.6
2022-08-10T01:54:17.287Z,60.8
2022-08-10T01:55:16.706Z,60.9
2022-08-10T01:56:17.139Z,61.1
2022-08-10T01:57:16.688Z,61.1
2022-08-10T01:58:17.181Z,61.1
2022-08-10T01:59:16.644Z,61.1
2022-08-10T02:00:17.111Z,61.2
2022-08-10T02:01:17.465Z,61.2
2022-08-10T02:02:17.289Z,61.4
2022-08-10T02:03:16.733Z,61.5
2022-08-10T02:04:17.148Z,61.4
2022-08-10T02:05:16.610Z,61.3
2022-08-10T02:06:17.020Z,61.3
2022-08-10T02:07:16.477Z,61.4
2022-08-10T02:08:16.890Z,61.4
2022-08-10T02:09:17.322Z,61.6
2022-08-10T02:10:17.794Z,61.6
2022-08-10T02:11:17.299Z,61.6
2022-08-10T02:12:16.855Z,61.6
2022-08-10T02:13:19.098Z,61.6
2022-08-10T02:14:16.602Z,61.6
2022-08-10T02:15:17.067Z,61.5
2022-08-10T02:16:16.554Z,61.7
2022-08-10T02:17:58.724Z,61.6
2022-08-10T02:18:16.451Z,61.9
2022-08-10T02:19:17.870Z,61.9
2022-08-10T02:20:17.336Z,62.0
2022-08-10T02:21:16.770Z,62.1
2022-08-10T02:22:37.169Z,62.1
2022-08-10T02:23:16.544Z,62.2
2022-08-10T02:24:17.004Z,62.2
2022-08-10T02:25:40.442Z,62.3
2022-08-10T02:26:16.953Z,62.3
2022-08-10T02:27:17.410Z,62.3
2022-08-10T02:28:30.657Z,62.3
2022-08-10T02:29:16.519Z,62.3
2022-08-10T02:30:17.002Z,62.3
2022-08-10T02:31:16.450Z,62.4
2022-08-10T02:32:36.688Z,62.5
2022-08-10T02:33:17.300Z,62.6
2022-08-10T02:34:18.121Z,62.4
2022-08-10T02:35:22.987Z,62.4
2022-08-10T02:36:17.359Z,62.5
2022-08-10T02:37:16.791Z,62.5
2022-08-10T02:38:17.220Z,62.5
2022-08-10T02:39:16.791Z,62.5
2022-08-10T02:42:17.656Z,62.7
2022-08-10T02:42:19.077Z,62.7
2022-08-10T02:45:09.080Z,62.6
2022-08-10T02:45:17.042Z,62.5
2022-08-10T02:45:17.168Z,62.8
2022-08-10T02:45:30.663Z,62.5
2022-08-10T02:46:21.086Z,62.6
2022-08-10T02:47:16.506Z,62.6
2022-08-10T02:48:16.951Z,62.5
2022-08-10T02:49:17.365Z,62.6
2022-08-10T02:50:16.789Z,62.6
2022-08-10T02:51:17.197Z,62.7
2022-08-10T02:52:16.875Z,62.8
2022-08-10T02:53:49.726Z,62.8
2022-08-10T02:54:16.800Z,62.8
2022-08-10T02:55:18.761Z,62.9
2022-08-10T02:56:17.248Z,62.9
2022-08-10T02:57:16.752Z,63.0
2022-08-10T02:58:18.618Z,63.0
2022-08-10T02:59:17.772Z,63.1
2022-08-10T03:00:17.242Z,63.1
2022-08-10T03:01:16.848Z,63.2
2022-08-10T03:02:17.347Z,63.2
2022-08-10T03:03:16.758Z,63.3
2022-08-10T03:04:17.202Z,63.4
2022-08-10T03:05:16.647Z,63.4
2022-08-10T03:06:17.099Z,63.4
2022-08-10T03:07:16.516Z,63.4
2022-08-10T03:08:16.971Z,63.5
2022-08-10T03:09:17.414Z,63.6
2022-08-10T03:10:16.888Z,63.7
2022-08-10T03:12:16.285Z,63.5
2022-08-10T03:12:35.800Z,63.5
2022-08-10T03:13:16.697Z,63.5
2022-08-10T03:14:17.175Z,63.5
2022-08-10T03:15:16.741Z,63.5
2022-08-10T03:16:17.226Z,63.5
2022-08-10T03:17:16.666Z,63.6
2022-08-10T03:18:17.128Z,63.6
2022-08-10T03:20:04.365Z,63.7
2022-08-10T03:20:36.124Z,63.8
2022-08-10T03:21:16.669Z,63.8
2022-08-10T03:22:16.600Z,63.8
2022-08-10T03:23:17.049Z,63.8
2022-08-10T03:24:30.254Z,63.8
2022-08-10T03:25:16.625Z,63.8
2022-08-10T03:26:20.691Z,63.9
2022-08-10T03:27:17.135Z,64.0
2022-08-10T03:28:20.860Z,64.0
2022-08-10T03:29:16.755Z,64.1
2022-08-10T03:30:33.154Z,64.2
2022-08-10T03:31:17.277Z,64.1
2022-08-10T03:32:17.136Z,64.0
2022-08-10T03:33:16.553Z,64.0
2022-08-10T03:34:33.251Z,64.1
2022-08-10T03:35:17.215Z,64.2
2022-08-10T03:36:41.184Z,64.3
2022-08-10T03:37:17.053Z,64.4
2022-08-10T03:38:16.500Z,64.4
2022-08-10T03:39:16.984Z,64.5
2022-08-10T03:40:16.489Z,64.5
2022-08-10T03:41:16.980Z,64.5
2022-08-10T03:42:16.784Z,64.5
2022-08-10T03:43:17.246Z,64.5
2022-08-10T03:44:17.852Z,64.3
2022-08-10T03:45:17.334Z,64.4
2022-08-10T03:46:16.751Z,64.3
2022-08-10T03:47:17.219Z,64.4
2022-08-10T03:48:16.635Z,64.4
2022-08-10T03:49:17.065Z,64.5
2022-08-10T03:50:45.980Z,64.5
2022-08-10T03:51:16.978Z,64.6
2022-08-10T03:52:17.327Z,64.6
2022-08-10T03:54:02.625Z,64.7
2022-08-10T03:54:17.247Z,64.6
2022-08-10T03:56:27.589Z,64.7
2022-08-10T03:56:31.775Z,64.8
2022-08-10T03:57:16.570Z,64.8
2022-08-10T03:58:17.041Z,64.8
2022-08-10T03:59:16.492Z,64.8
2022-08-10T04:00:16.954Z,64.7
2022-08-10T04:01:17.509Z,64.7
2022-08-10T04:02:42.419Z,64.6
2022-08-10T04:03:16.899Z,64.5
2022-08-10T04:04:24.898Z,64.5
2022-08-10T04:05:16.845Z,64.5
2022-08-10T04:06:17.268Z,64.7
2022-08-10T04:07:16.742Z,64.7
2022-08-10T04:08:17.204Z,64.7
2022-08-10T04:09:16.829Z,64.7
2022-08-10T04:10:17.305Z,64.7
2022-08-10T04:11:16.780Z,64.7
2022-08-10T04:12:17.451Z,64.7
2022-08-10T04:13:16.914Z,64.7
2022-08-10T04:14:35.812Z,64.8
2022-08-10T04:15:16.843Z,64.8
2022-08-10T04:16:17.291Z,64.7
2022-08-10T04:17:18.451Z,64.8
2022-08-10T04:18:16.878Z,64.8
2022-08-10T04:19:17.388Z,64.8
2022-08-10T04:20:16.806Z,64.7
2022-08-10T04:21:17.218Z,64.8
2022-08-10T04:22:17.171Z,64.8
2022-08-10T04:23:16.625Z,64.8
2022-08-10T04:24:29.613Z,64.8
2022-08-10T04:25:16.518Z,64.7
2022-08-10T04:26:17.013Z,64.8
2022-08-10T04:27:16.458Z,64.7
2022-08-10T04:28:16.915Z,64.8
2022-08-10T04:29:17.398Z,64.8
2022-08-10T04:30:16.835Z,64.8
2022-08-10T04:31:17.273Z,64.9
2022-08-10T04:32:17.210Z,64.9
2022-08-10T04:33:16.622Z,64.8
2022-08-10T04:34:17.074Z,64.8
2022-08-10T04:35:16.523Z,64.7
2022-08-10T04:36:16.944Z,64.7
2022-08-10T04:37:17.375Z,64.7
2022-08-10T04:38:16.870Z,64.8
2022-08-10T04:39:17.439Z,64.7
2022-08-10T04:40:30.886Z,64.5
2022-08-10T04:41:16.496Z,64.6
2022-08-10T04:42:16.474Z,64.5
2022-08-10T04:43:16.932Z,64.4
2022-08-10T04:44:17.439Z,64.4
2022-08-10T04:45:16.864Z,64.4
2022-08-10T04:46:42.403Z,64.5
2022-08-10T04:47:17.079Z,64.5
2022-08-10T04:48:41.831Z,64.3
2022-08-10T04:49:54.357Z,64.2
2022-08-10T04:50:18.183Z,64.3
2022-08-10T04:51:19.286Z,64.2
2022-08-10T04:52:16.786Z,64.2
2022-08-10T04:53:17.233Z,64.2
2022-08-10T04:54:17.457Z,64.0
2022-08-10T04:55:16.914Z,63.8
2022-08-10T04:56:17.371Z,63.7
2022-08-10T04:57:16.858Z,63.5
2022-08-10T04:58:17.313Z,63.5
2022-08-10T04:59:16.777Z,63.3
2022-08-10T05:00:19.483Z,63.3
2022-08-10T05:01:24.346Z,63.2
2022-08-10T05:02:32.100Z,63.1
2022-08-10T05:03:16.735Z,63.0
2022-08-10T05:04:32.750Z,63.0
2022-08-10T05:05:16.405Z,62.8
2022-08-10T05:06:16.850Z,62.8
2022-08-10T05:07:18.846Z,62.8
2022-08-10T05:08:17.324Z,62.8
2022-08-10T05:09:16.790Z,62.8
2022-08-10T05:10:17.248Z,62.9
2022-08-10T05:11:24.365Z,62.6
2022-08-10T05:12:16.820Z,62.6
2022-08-10T05:13:17.280Z,62.6
2022-08-10T05:14:16.729Z,62.7
2022-08-10T05:15:17.155Z,62.7
2022-08-10T05:16:31.642Z,62.6
2022-08-10T05:17:16.974Z,62.5
2022-08-10T05:18:17.412Z,62.5
2022-08-10T05:19:16.855Z,62.4
2022-08-10T05:20:17.308Z,62.2
2022-08-10T05:21:52.270Z,62.2
2022-08-10T05:22:17.184Z,62.2
2022-08-10T05:23:16.646Z,62.0
2022-08-10T05:24:17.098Z,61.8
2022-08-10T05:25:16.553Z,61.7
2022-08-10T05:26:17.022Z,61.8
2022-08-10T05:27:16.479Z,61.3
2022-08-10T05:28:16.941Z,61.4
2022-08-10T05:29:17.358Z,61.3
2022-08-10T05:30:16.823Z,61.0
2022-08-10T05:31:24.354Z,60.8
2022-08-10T05:32:16.630Z,60.8
2022-08-10T05:33:17.043Z,60.5
2022-08-10T05:34:21.061Z,60.4
2022-08-10T05:35:16.539Z,60.4
2022-08-10T05:36:16.974Z,60.3
2022-08-10T05:38:08.697Z,60.3
2022-08-10T05:38:17.170Z,60.2
2022-08-10T05:39:16.764Z,60.2
2022-08-10T05:40:17.234Z,59.8
2022-08-10T05:41:16.703Z,59.8
2022-08-10T05:42:17.351Z,59.6
2022-08-10T05:43:17.376Z,59.4
2022-08-10T05:44:16.933Z,59.1
2022-08-10T05:45:17.379Z,59.0
2022-08-10T05:46:21.323Z,58.9
2022-08-10T05:47:16.768Z,58.7
2022-08-10T05:48:41.258Z,58.5
2022-08-10T05:49:16.583Z,58.5
2022-08-10T05:50:17.001Z,58.5
2022-08-10T05:51:19.680Z,58.2
2022-08-10T05:52:16.850Z,58.0
2022-08-10T05:54:00.217Z,57.8
2022-08-10T05:54:16.717Z,57.6
2022-08-10T05:55:18.301Z,57.5
2022-08-10T05:56:16.802Z,57.4
2022-08-10T05:57:17.306Z,57.2
2022-08-10T05:58:16.736Z,57.3
2022-08-10T06:00:09.749Z,57.2
2022-08-10T06:00:36.000Z,57.0
2022-08-10T06:01:16.789Z,57.1
2022-08-10T06:02:32.394Z,57.2
2022-08-10T06:03:24.299Z,57.4
2022-08-10T06:04:16.821Z,57.4
2022-08-10T06:05:17.329Z,57.2
2022-08-10T06:06:16.796Z,56.8
2022-08-10T06:07:21.950Z,56.8
2022-08-10T06:08:16.476Z,57.0
2022-08-10T06:09:16.919Z,56.8
2022-08-10T06:10:31.424Z,56.6
2022-08-10T06:12:25.853Z,56.7
2022-08-10T06:12:28.742Z,56.7
2022-08-10T06:13:30.110Z,56.5
2022-08-10T06:14:19.295Z,56.5
2022-08-10T06:15:51.134Z,56.5
2022-08-10T06:16:17.157Z,56.4
2022-08-10T06:17:16.590Z,56.0
2022-08-10T06:18:17.048Z,56.1
2022-08-10T06:19:16.481Z,56.0
2022-08-10T06:20:16.944Z,55.9
2022-08-10T06:21:17.392Z,55.6
2022-08-10T06:22:17.317Z,55.0
2022-08-10T06:23:16.759Z,55.1
2022-08-10T06:24:17.215Z,55.2
2022-08-10T06:26:09.308Z,55.1
2022-08-10T06:26:21.920Z,55.0
2022-08-10T06:27:20.705Z,55.0
2022-08-10T06:28:17.114Z,55.5
2022-08-10T06:29:16.555Z,55.5
2022-08-10T06:30:21.240Z,55.2
2022-08-10T06:31:16.747Z,55.0
2022-08-10T06:32:16.898Z,54.6
2022-08-10T06:33:17.367Z,54.5
2022-08-10T06:34:16.850Z,54.2
2022-08-10T06:35:17.456Z,54.0
2022-08-10T06:36:16.935Z,54.0
2022-08-10T06:37:17.419Z,53.8
2022-08-10T06:38:16.881Z,53.7
2022-08-10T06:39:33.840Z,53.4
2022-08-10T06:40:16.944Z,53.4
2022-08-10T06:41:20.298Z,53.1
2022-08-10T06:42:18.740Z,53.0
2022-08-10T06:43:17.211Z,53.0
2022-08-10T06:44:16.630Z,52.8
2022-08-10T06:45:17.081Z,52.8
2022-08-10T06:46:16.502Z,52.6
2022-08-10T06:47:23.446Z,52.4
2022-08-10T06:48:17.740Z,52.0
2022-08-10T06:49:17.203Z,51.8
2022-08-10T06:50:34.750Z,51.5
2022-08-10T06:51:17.159Z,51.4
2022-08-10T06:52:18.680Z,51.7
2022-08-10T06:53:17.139Z,51.1
2022-08-10T06:54:16.621Z,51.0
2022-08-10T06:55:18.903Z,49.6
2022-08-10T06:56:17.322Z,48.1
2022-08-10T06:57:18.942Z,47.1
2022-08-10T06:58:16.975Z,46.5
2022-08-10T06:59:22.834Z,46.0
2022-08-10T07:00:20.553Z,47.5
2022-08-10T07:01:17.121Z,47.8
2022-08-10T07:02:16.744Z,48.2
2022-08-10T07:03:17.198Z,48.2
2022-08-10T07:04:32.125Z,46.3
2022-08-10T07:05:16.689Z,45.0
2022-08-10T07:06:17.132Z,44.2
2022-08-10T07:07:16.608Z,43.9
2022-08-10T07:08:17.072Z,43.8
2022-08-10T07:09:16.821Z,44.0
2022-08-10T07:10:17.271Z,44.0
2022-08-10T07:11:16.700Z,43.5
2022-08-10T07:12:17.265Z,42.7
2022-08-10T07:14:15.059Z,42.6
2022-08-10T07:14:18.789Z,43.5
2022-08-10T07:15:17.295Z,42.8
2022-08-10T07:16:16.740Z,42.6
2022-08-10T07:17:17.183Z,42.8
2022-08-10T07:18:16.651Z,42.5
2022-08-10T07:19:17.119Z,42.1
2022-08-10T07:20:16.573Z,42.0
2022-08-10T07:21:17.022Z,42.0
2022-08-10T07:23:00.565Z,41.8
2022-08-10T07:23:56.672Z,42.0
2022-08-10T07:24:16.704Z,41.9
2022-08-10T07:25:17.119Z,41.8
2022-08-10T07:26:17.132Z,41.4
2022-08-10T07:27:16.605Z,41.6
2022-08-10T07:28:17.060Z,41.5
2022-08-10T07:29:53.113Z,41.3
2022-08-10T07:30:16.934Z,41.2
2022-08-10T07:31:29.567Z,41.6
2022-08-10T07:32:16.845Z,41.5
2022-08-10T07:33:17.299Z,41.1
2022-08-10T07:34:29.956Z,40.8
2022-08-10T07:35:16.560Z,40.9
2022-08-10T07:36:17.035Z,41.0
2022-08-10T07:37:16.624Z,40.9
2022-08-10T07:38:17.136Z,40.9
2022-08-10T07:39:58.623Z,41.5
2022-08-10T07:40:17.263Z,41.8
2022-08-10T07:41:18.794Z,41.6
2022-08-10T07:42:17.255Z,41.4
2022-08-10T07:43:16.676Z,41.4
2022-08-10T07:44:17.109Z,42.0
2022-08-10T07:45:16.543Z,43.2
2022-08-10T07:46:16.974Z,43.8
2022-08-10T07:47:17.421Z,43.9
2022-08-10T07:48:16.868Z,44.3
2022-08-10T07:49:19.949Z,44.4
2022-08-10T07:50:16.446Z,44.2
2022-08-10T07:51:16.924Z,43.7
2022-08-10T07:52:16.610Z,43.5
2022-08-10T07:53:17.065Z,44.0
2022-08-10T07:54:16.537Z,43.5
2022-08-10T07:55:16.955Z,43.5
2022-08-10T07:56:47.727Z,43.6
2022-08-10T07:57:30.643Z,43.5
2022-08-10T07:58:16.425Z,43.2
2022-08-10T07:59:16.849Z,43.3
2022-08-10T08:00:17.292Z,43.5
2022-08-10T08:01:19.239Z,43.4
2022-08-10T08:02:16.919Z,43.2
2022-08-10T08:03:17.374Z,43.7
2022-08-10T08:04:16.816Z,43.6
2022-08-10T08:05:54.859Z,43.3
2022-08-10T08:06:16.783Z,43.4
2022-08-10T08:07:21.600Z,43.4
2022-08-10T08:08:17.035Z,43.5
2022-08-10T08:09:16.518Z,43.5
2022-08-10T08:10:16.947Z,44.1
2022-08-10T08:11:26.725Z,43.8
2022-08-10T08:12:17.286Z,43.8
2022-08-10T08:13:16.718Z,43.6
2022-08-10T08:14:17.169Z,43.5
2022-08-10T08:16:14.691Z,43.5
2022-08-10T08:16:22.280Z,43.9
2022-08-10T08:17:18.917Z,43.8
2022-08-10T08:18:24.914Z,43.7
2022-08-10T08:19:35.675Z,43.7
2022-08-10T08:20:16.508Z,43.8
2022-08-10T08:24:03.114Z,43.8
2022-08-10T08:24:03.996Z,43.8
2022-08-10T08:24:04.326Z,43.8
2022-08-10T08:24:33.286Z,43.7
2022-08-10T08:25:17.389Z,43.8
2022-08-10T08:26:16.804Z,43.9
2022-08-10T08:27:17.253Z,43.9
2022-08-10T08:28:16.721Z,43.4
2022-08-10T08:29:17.156Z,43.5
2022-08-10T08:30:28.005Z,43.7
2022-08-10T08:31:16.560Z,43.6
2022-08-10T08:32:16.600Z,43.9
2022-08-10T08:33:41.451Z,43.5
2022-08-10T08:34:16.605Z,43.7
2022-08-10T08:35:17.069Z,43.7
2022-08-10T08:36:16.556Z,43.7
2022-08-10T08:38:30.605Z,43.9
2022-08-10T08:38:33.866Z,44.0
2022-08-10T08:39:16.908Z,44.1
2022-08-10T08:40:17.659Z,43.6
2022-08-10T08:41:17.073Z,43.4
2022-08-10T08:42:17.271Z,43.3
2022-08-10T08:43:18.230Z,43.5
2022-08-10T08:44:17.055Z,43.5
2022-08-10T08:45:16.527Z,43.3
2022-08-10T08:46:16.965Z,43.5
2022-08-10T08:48:02.186Z,43.5
2022-08-10T08:48:16.943Z,43.5
2022-08-10T08:49:41.549Z,43.5
2022-08-10T08:50:16.915Z,43.2
2022-08-10T08:52:06.525Z,43.0
2022-08-10T08:52:19.048Z,43.4
2022-08-10T08:53:22.625Z,42.9
2022-08-10T08:54:17.224Z,42.5
2022-08-10T08:55:50.271Z,42.3
2022-08-10T08:56:17.076Z,42.2
2022-08-10T08:57:49.227Z,42.1
2022-08-10T08:58:16.977Z,41.8
2022-08-10T08:59:16.422Z,42.4
2022-08-10T09:00:16.877Z,42.4
2022-08-10T09:01:17.465Z,42.2
2022-08-10T09:02:17.480Z,41.6
2022-08-10T09:03:17.046Z,41.7
2022-08-10T09:04:22.164Z,41.4
2022-08-10T09:05:16.696Z,42.7
2022-08-10T09:06:17.118Z,42.7
2022-08-10T09:07:39.210Z,42.2
2022-08-10T09:08:16.975Z,42.2
2022-08-10T09:09:17.430Z,42.4
2022-08-10T09:10:16.969Z,42.2
2022-08-10T09:11:16.421Z,42.2
2022-08-10T09:12:16.824Z,42.5
2022-08-10T09:13:17.259Z,42.1
2022-08-10T09:14:26.035Z,42.0
2022-08-10T09:15:40.132Z,41.8
2022-08-10T09:16:17.353Z,41.8
2022-08-10T09:17:16.812Z,41.9
2022-08-10T09:18:17.283Z,41.8
2022-08-10T09:19:35.300Z,41.9
2022-08-10T09:20:16.921Z,41.8
2022-08-10T09:21:17.378Z,41.6
2022-08-10T09:22:19.399Z,41.5
2022-08-10T09:23:16.931Z,41.2
2022-08-10T09:24:20.540Z,41.2
2022-08-10T09:25:17.022Z,41.0
2022-08-10T09:26:16.437Z,41.3
2022-08-10T09:27:16.901Z,41.0
2022-08-10T09:28:17.351Z,40.8
2022-08-10T09:29:16.854Z,40.7
2022-08-10T09:30:17.398Z,40.5
2022-08-10T09:31:23.463Z,40.5
2022-08-10T09:33:15.455Z,41.4
2022-08-10T09:36:17.885Z,41.7
2022-08-10T09:36:18.710Z,42.0
2022-08-10T09:36:18.875Z,42.0
2022-08-10T09:36:31.707Z,41.0
2022-08-10T09:37:16.443Z,40.7
2022-08-10T09:38:16.885Z,40.5
2022-08-10T09:40:06.501Z,40.3
2022-08-10T09:40:58.496Z,40.3
2022-08-10T09:41:17.437Z,40.5
2022-08-10T09:42:17.139Z,41.8
2022-08-10T09:43:26.871Z,42.5
2022-08-10T09:44:17.372Z,42.6
2022-08-10T09:45:16.841Z,42.6
2022-08-10T09:46:17.290Z,42.8
2022-08-10T09:47:16.758Z,43.0
2022-08-10T09:48:17.233Z,43.0
2022-08-10T09:49:18.380Z,44.0
2022-08-10T09:50:16.947Z,44.0
2022-08-10T09:51:44.610Z,43.0
2022-08-10T09:52:16.826Z,42.5
2022-08-10T09:53:17.256Z,42.5
2022-08-10T09:54:16.691Z,42.4
2022-08-10T09:55:17.147Z,41.9
2022-08-10T09:56:24.297Z,41.5
2022-08-10T09:57:43.659Z,42.0
2022-08-10T09:58:16.712Z,42.7
2022-08-10T09:59:59.795Z,42.8
2022-08-10T10:00:16.652Z,42.2
2022-08-10T10:01:58.468Z,41.8
2022-08-10T10:02:16.698Z,41.0
2022-08-10T10:03:22.782Z,41.0
2022-08-10T10:04:16.902Z,40.8
2022-08-10T10:05:17.357Z,40.6
2022-08-10T10:06:16.814Z,40.7
2022-08-10T10:07:17.238Z,40.9
2022-08-10T10:08:16.679Z,41.0
2022-08-10T10:09:17.101Z,40.5
2022-08-10T10:10:17.992Z,40.5
2022-08-10T10:11:16.459Z,40.0
2022-08-10T10:12:17.369Z,40.1
2022-08-10T10:13:16.833Z,40.7
2022-08-10T10:14:17.281Z,41.2
2022-08-10T10:15:25.896Z,41.7
2022-08-10T10:16:16.468Z,40.9
2022-08-10T10:17:16.895Z,41.0
2022-08-10T10:18:17.311Z,41.3
2022-08-10T10:19:16.731Z,41.9
2022-08-10T10:20:17.177Z,42.1
2022-08-10T10:21:52.453Z,42.4
2022-08-10T10:22:17.086Z,42.8
2022-08-10T10:23:16.502Z,42.5
2022-08-10T10:24:22.996Z,42.5
2022-08-10T10:25:21.536Z,42.8
2022-08-10T10:26:19.069Z,43.0
2022-08-10T10:27:16.961Z,43.2
2022-08-10T10:28:17.420Z,43.1
2022-08-10T10:29:57.865Z,43.4
2022-08-10T10:30:17.295Z,43.5
2022-08-10T10:31:17.244Z,43.9
2022-08-10T10:32:17.254Z,44.0
2022-08-10T10:33:16.709Z,44.0
2022-08-10T10:34:17.142Z,44.0
2022-08-10T10:35:16.576Z,43.7
2022-08-10T10:36:16.996Z,43.8
2022-08-10T10:37:16.451Z,44.0
2022-08-10T10:38:16.915Z,43.8
2022-08-10T10:39:24.176Z,43.5
2022-08-10T10:40:16.767Z,43.7
2022-08-10T10:41:17.244Z,43.4
2022-08-10T10:42:44.635Z,43.0
2022-08-10T10:43:16.492Z,42.5
2022-08-10T10:44:16.930Z,42.6
2022-08-10T10:45:17.386Z,42.8
2022-08-10T10:46:23.481Z,42.9
2022-08-10T10:47:16.984Z,42.6
2022-08-10T10:48:29.190Z,42.6
2022-08-10T10:49:16.933Z,42.9
2022-08-10T10:50:17.404Z,42.8
2022-08-10T10:51:16.867Z,42.8
2022-08-10T10:52:17.145Z,43.1
2022-08-10T10:53:16.636Z,43.2
2022-08-10T10:54:17.143Z,43.4
2022-08-10T10:55:16.650Z,43.0
2022-08-10T10:56:17.119Z,42.7
2022-08-10T10:57:16.563Z,42.5
2022-08-10T10:58:22.484Z,42.4
2022-08-10T10:59:35.555Z,41.9
2022-08-10T11:00:17.103Z,41.8
2022-08-10T11:01:16.659Z,41.6
2022-08-10T11:02:17.163Z,41.6
2022-08-10T11:03:16.662Z,41.5
2022-08-10T11:04:17.193Z,41.6
2022-08-10T11:05:16.652Z,41.7
2022-08-10T11:06:17.129Z,41.4
2022-08-10T11:07:22.895Z,41.6
2022-08-10T11:08:17.192Z,41.8
2022-08-10T11:10:04.133Z,42.2
2022-08-10T11:10:32.357Z,42.2
2022-08-10T11:11:59.962Z,42.0
2022-08-10T11:12:19.751Z,42.0
2022-08-10T11:14:23.933Z,41.9
2022-08-10T11:14:29.070Z,41.7
2022-08-10T11:15:17.006Z,42.0
2022-08-10T11:16:16.457Z,42.2
2022-08-10T11:17:16.926Z,42.5
2022-08-10T11:18:17.528Z,42.5
2022-08-10T11:19:16.998Z,42.2
2022-08-10T11:20:16.464Z,42.4
2022-08-10T11:21:17.606Z,42.2
2022-08-10T11:22:16.736Z,42.2
2022-08-10T11:23:17.164Z,42.0
2022-08-10T11:24:43.130Z,42.7
2022-08-10T11:25:17.104Z,42.9
2022-08-10T11:26:16.546Z,42.8
2022-08-10T11:27:22.564Z,42.7
2022-08-10T11:28:17.083Z,42.6
2022-08-10T11:29:16.540Z,43.0
2022-08-10T11:30:17.265Z,42.5
2022-08-10T11:31:16.752Z,42.1
2022-08-10T11:32:21.756Z,41.8
2022-08-10T11:33:30.643Z,41.8
2022-08-10T11:34:48.095Z,41.9
2022-08-10T11:35:17.416Z,42.0
2022-08-10T11:36:16.887Z,42.0
2022-08-10T11:37:17.308Z,41.6
2022-08-10T11:38:34.832Z,41.8
2022-08-10T11:39:17.554Z,41.8
2022-08-10T11:40:17.009Z,41.4
2022-08-10T11:42:06.982Z,41.2
2022-08-10T11:42:33.375Z,42.2
2022-08-10T11:43:17.063Z,42.1
2022-08-10T11:44:16.509Z,41.7
2022-08-10T11:45:17.128Z,41.6
2022-08-10T11:46:28.596Z,41.9
2022-08-10T11:47:17.439Z,41.8
2022-08-10T11:48:52.370Z,41.8
2022-08-10T11:49:17.381Z,42.5
2022-08-10T11:50:16.899Z,42.5
2022-08-10T11:51:17.353Z,42.5
2022-08-10T11:52:16.832Z,42.7
2022-08-10T11:53:17.264Z,42.9
2022-08-10T11:54:16.725Z,42.6
2022-08-10T11:55:17.685Z,42.5
2022-08-10T11:56:17.132Z,42.8
2022-08-10T11:57:17.025Z,42.8
2022-08-10T11:58:16.462Z,43.0
2022-08-10T11:59:17.648Z,43.0
2022-08-10T12:00:17.184Z,42.8
2022-08-10T12:01:16.635Z,42.7
2022-08-10T12:02:16.669Z,42.8
2022-08-10T12:03:17.239Z,42.8
2022-08-10T12:04:16.681Z,43.0
2022-08-10T12:05:17.151Z,42.9
2022-08-10T12:06:52.187Z,43.1
2022-08-10T12:08:10.274Z,43.0
2022-08-10T12:08:55.409Z,43.0
2022-08-10T12:10:08.057Z,43.0
2022-08-10T12:10:17.347Z,43.1
2022-08-10T12:11:25.237Z,43.1
2022-08-10T12:12:16.685Z,43.0
2022-08-10T12:13:17.106Z,43.2
2022-08-10T12:14:23.112Z,43.3
2022-08-10T12:15:16.720Z,43.2
2022-08-10T12:16:17.185Z,43.3
2022-08-10T12:17:16.644Z,43.2
2022-08-10T12:18:17.108Z,43.1
2022-08-10T12:19:16.610Z,43.0
2022-08-10T12:20:17.093Z,43.1
2022-08-10T12:21:22.411Z,43.0
2022-08-10T12:22:16.906Z,43.2
2022-08-10T12:23:17.320Z,43.2
2022-08-10T12:24:16.736Z,43.0
2022-08-10T12:25:55.468Z,43.1
2022-08-10T12:26:16.656Z,43.0
2022-08-10T12:27:17.079Z,43.2
2022-08-10T12:28:16.525Z,43.4
2022-08-10T12:29:16.974Z,43.1
2022-08-10T12:30:17.451Z,43.1
2022-08-10T12:31:16.913Z,43.2
2022-08-10T12:32:25.649Z,43.2
2022-08-10T12:33:17.343Z,43.2
2022-08-10T12:34:16.803Z,43.2
2022-08-10T12:35:26.045Z,43.0
2022-08-10T12:36:18.966Z,43.0
2022-08-10T12:37:16.438Z,43.2
2022-08-10T12:38:16.856Z,43.2
2022-08-10T12:39:17.456Z,43.0
2022-08-10T12:40:35.387Z,43.2
2022-08-10T12:41:44.153Z,43.1
2022-08-10T12:42:39.104Z,43.0
2022-08-10T12:44:06.086Z,43.0
2022-08-10T12:44:16.553Z,43.0
2022-08-10T12:45:17.013Z,43.0
2022-08-10T12:46:16.494Z,43.2
2022-08-10T12:47:16.996Z,43.1
2022-08-10T12:48:16.445Z,43.0
2022-08-10T12:49:16.905Z,43.2
2022-08-10T12:50:32.883Z,43.3
2022-08-10T12:51:16.773Z,43.2
2022-08-10T12:52:16.900Z,43.2
2022-08-10T12:53:17.328Z,43.0
2022-08-10T12:54:31.779Z,43.1
2022-08-10T12:55:16.448Z,43.2
2022-08-10T12:56:16.885Z,43.2
2022-08-10T12:57:17.349Z,43.2
2022-08-10T12:58:58.618Z,43.2
2022-08-10T12:59:17.346Z,43.3
2022-08-10T13:00:17.840Z,43.2
2022-08-10T13:01:18.029Z,43.3
2022-08-10T13:02:17.098Z,43.1
2022-08-10T13:04:20.201Z,43.4
2022-08-10T13:04:24.470Z,43.2
2022-08-10T13:05:17.102Z,43.1
2022-08-10T13:06:16.537Z,43.0
2022-08-10T13:08:04.403Z,43.3
2022-08-10T13:08:28.028Z,43.4
2022-08-10T13:09:16.798Z,43.0
2022-08-10T13:10:17.262Z,42.8
2022-08-10T13:12:34.502Z,42.6
2022-08-10T13:12:34.697Z,42.5
2022-08-10T13:13:17.228Z,42.5
2022-08-10T13:14:24.008Z,42.5
2022-08-10T13:15:48.655Z,42.3
2022-08-10T13:16:17.001Z,42.2
2022-08-10T13:17:21.410Z,42.1
2022-08-10T13:18:19.781Z,42.1